Latest Coastal Weather Observations for Bougainville Reef

IDQ60701

Issued at 11:42 am EST Wednesday 18 January 2017 (issued every 10 minutes, with the page automatically refreshed every 10 minutes)

About coastal observations | Map of coastal stations | Coastal observations for QLD | Marine services | Other Formats
Station Details ID: 200840 Name: BOUGAINVILLE REEF Lat: -15.49 Lon: 147.12 Height: 0.0 m
Data from the previous 72 hours. | See also: Recent months for locations in Queensland
Date/Time
EST
Temp
°C
Wind Pressure Rain since
9am
mm
Weather Cloud Vis
km
Sea
Height
m
Swell
Dir  Spd
kts
Gust
kts
hPa Trend Height
m
Period
s
Dir
18/11:30am 28.7 SE 7 9 1011.8 - - - - - - - - -
18/11:00am 29.0 SE 8 9 1012.1 - - - - - - - - -
18/10:30am 29.0 SE 8 9 1012.4 - - - - - - - - -
18/10:00am 28.9 SE 7 9 1012.5 - - - - - - - - -
18/09:30am 29.0 SE 6 8 1012.7 - - - - - - - - -
18/09:00am 29.1 SE 7 8 1012.7 - - - - - - - - -
18/08:30am 29.2 SE 7 8 1012.8 - - - - - - - - -
18/08:00am 29.0 SE 7 10 1012.5 - - - - - - - - -
18/07:30am 28.9 SE 7 9 1012.6 - - - - - - - - -
18/07:00am 28.7 ESE 7 8 1012.2 - - - - - - - - -
18/06:30am 28.5 ESE 8 9 1011.9 - - - - - - - - -
18/06:00am 28.3 ESE 7 9 1011.4 - - - - - - - - -
18/05:30am 28.1 SE 8 9 1011.1 - - - - - - - - -
18/05:00am 28.2 SE 9 10 1010.5 - - - - - - - - -
18/04:30am 28.2 ESE 11 12 1010.3 - - - - - - - - -
18/04:00am 28.5 ESE 10 14 1010.0 - - - - - - - - -
18/03:30am 28.4 E 10 11 1010.3 - - - - - - - - -
18/03:00am 28.5 E 13 13 1010.1 - - - - - - - - -
18/02:30am 28.3 E 12 14 1010.3 - - - - - - - - -
18/02:00am 28.5 E 13 15 1010.4 - - - - - - - - -
18/01:30am 28.5 E 11 14 1010.7 - - - - - - - - -
18/01:00am 28.3 E 15 17 1010.9 - - - - - - - - -
18/12:30am 28.1 E 11 15 1011.3 - - - - - - - - -
18/12:00am 27.6 ESE 19 21 1011.5 - - - - - - - - -
 
Date/Time
EST
Temp
°C
Wind Pressure Rain since
9am
mm
Weather Cloud Vis
km
Sea
Height
m
Swell
Dir  Spd
kts
Gust
kts
hPa Trend Height
m
Period
s
Dir
17/11:30pm 28.0 ESE 17 19 1011.7 - - - - - - - - -
17/11:00pm 29.0 ESE 13 21 1012.1 - - - - - - - - -
17/10:30pm 29.0 ESE 12 14 1012.3 - - - - - - - - -
17/10:00pm 28.0 E 7 14 1012.4 - - - - - - - - -
17/09:30pm 27.9 E 8 10 1012.3 - - - - - - - - -
17/09:00pm 27.3 E 18 18 1011.9 - - - - - - - - -
17/08:30pm 28.3 ESE 17 19 1011.8 - - - - - - - - -
17/08:00pm 28.5 SE 13 16 1011.1 - - - - - - - - -
17/07:30pm 28.6 SE 14 15 1010.9 - - - - - - - - -
17/07:00pm 28.7 ESE 13 15 1010.3 - - - - - - - - -
17/06:30pm 28.9 ESE 13 15 1010.2 - - - - - - - - -
17/06:00pm 29.0 ESE 12 14 1009.7 - - - - - - - - -
17/05:30pm 28.9 ESE 14 15 1009.7 - - - - - - - - -
17/05:00pm 28.3 ESE 13 15 1009.3 - - - - - - - - -
17/04:30pm 28.6 SE 14 16 1009.5 - - - - - - - - -
17/04:00pm 28.3 SE 10 18 1009.3 - - - - - - - - -
17/03:30pm 28.0 E 6 8 1009.6 - - - - - - - - -
17/03:00pm 28.4 SE 8 10 1009.9 - - - - - - - - -
17/02:30pm 28.5 SE 7 9 1010.2 - - - - - - - - -
17/02:00pm 28.3 SSE 6 8 1010.4 - - - - - - - - -
17/01:30pm 28.2 SSE 6 9 1010.9 - - - - - - - - -
17/01:00pm 28.3 S 9 11 1011.5 - - - - - - - - -
17/12:30pm 28.1 S 8 9 1011.8 - - - - - - - - -
17/12:00pm 28.1 SSW 8 10 1012.3 - - - - - - - - -
17/11:30am 28.1 SSW 8 10 1012.4 - - - - - - - - -
17/11:00am 28.1 S 8 8 1012.4 - - - - - - - - -
17/10:30am 27.6 S 10 11 1012.6 - - - - - - - - -
17/10:00am 27.4 SW 10 10 1012.6 - - - - - - - - -
17/09:30am 28.1 W 5 6 1012.8 - - - - - - - - -
17/09:00am 27.7 WNW 9 8 1012.6 - - - - - - - - -
17/08:30am 29.0 NNW 8 10 1012.6 - - - - - - - - -
17/08:00am 28.7 NNE 7 8 1012.0 - - - - - - - - -
17/07:30am 28.9 N 6 7 1012.0 - - - - - - - - -
17/07:00am 27.6 NNE 12 14 1011.1 - - - - - - - - -
17/06:30am 28.3 ENE 8 11 1011.2 - - - - - - - - -
17/06:00am 28.2 NE 8 9 1010.7 - - - - - - - - -
17/05:30am 28.2 ENE 7 8 1010.4 - - - - - - - - -
17/05:00am 28.2 ENE 7 9 1009.4 - - - - - - - - -
17/04:30am 28.0 E 6 8 1009.2 - - - - - - - - -
17/04:00am 28.2 NNE 5 7 1009.3 - - - - - - - - -
17/03:30am 28.2 E 6 7 1009.5 - - - - - - - - -
17/03:00am 28.1 ENE 8 8 1009.5 - - - - - - - - -
17/02:30am 28.2 ENE 7 9 1009.6 - - - - - - - - -
17/02:00am 28.1 NE 9 9 1009.6 - - - - - - - - -
17/01:30am 28.1 NE 8 11 1009.7 - - - - - - - - -
17/01:00am 28.2 ENE 10 12 1009.7 - - - - - - - - -
17/12:30am 28.2 ENE 11 13 1010.1 - - - - - - - - -
17/12:00am 28.2 NE 10 12 1010.6 - - - - - - - - -
 
Date/Time
EST
Temp
°C
Wind Pressure Rain since
9am
mm
Weather Cloud Vis
km
Sea
Height
m
Swell
Dir  Spd
kts
Gust
kts
hPa Trend Height
m
Period
s
Dir
16/11:30pm 28.3 NNE 8 9 1011.0 - - - - - - - - -
16/11:00pm 28.6 NE 11 14 1010.7 - - - - - - - - -
16/10:30pm 28.8 NE 10 12 1010.9 - - - - - - - - -
16/10:00pm 29.0 ENE 10 14 1010.6 - - - - - - - - -
16/09:30pm 28.9 ENE 10 13 1010.5 - - - - - - - - -
16/09:00pm 29.0 ENE 11 12 1010.3 - - - - - - - - -
16/08:30pm 28.9 ENE 9 10 1010.5 - - - - - - - - -
16/08:00pm 28.8 E 8 11 1010.3 - - - - - - - - -
16/07:30pm 28.9 E 8 9 1010.3 - - - - - - - - -
16/07:00pm 28.8 E 10 11 1009.4 - - - - - - - - -
16/06:30pm 28.6 E 9 11 1009.0 - - - - - - - - -
16/06:00pm 28.5 E 9 10 1008.1 - - - - - - - - -
16/05:30pm 28.7 E 9 11 1007.9 - - - - - - - - -
16/05:00pm 28.9 E 9 12 1007.5 - - - - - - - - -
16/04:30pm 28.8 E 7 8 1007.3 - - - - - - - - -
16/04:00pm 28.8 ENE 6 7 1007.3 - - - - - - - - -
16/03:30pm 29.0 ENE 7 8 1007.6 - - - - - - - - -
16/03:00pm 29.1 ENE 6 8 1007.9 - - - - - - - - -
16/02:30pm 29.1 ENE 6 8 1008.1 - - - - - - - - -
16/02:00pm 28.5 E 7 8 1008.4 - - - - - - - - -
16/01:30pm 28.6 NE 7 8 1008.6 - - - - - - - - -
16/01:00pm 28.6 NE 8 8 1008.8 - - - - - - - - -
16/12:30pm 28.8 NE 6 8 1008.8 - - - - - - - - -
16/12:00pm 28.6 ENE 6 7 1008.9 - - - - - - - - -
16/11:30am 28.5 ENE 8 9 1008.9 - - - - - - - - -
16/11:00am 28.4 ENE 9 11 1008.7 - - - - - - - - -
16/10:30am 28.4 ENE 10 11 1008.5 - - - - - - - - -
16/10:00am 28.2 E 10 11 1008.7 - - - - - - - - -
16/09:30am 28.1 ESE 10 11 1008.6 - - - - - - - - -
16/09:00am 27.3 SSE 8 8 1008.6 - - - - - - - - -
16/08:30am 27.4 S 8 9 1008.8 - - - - - - - - -
16/08:00am 26.3 SW 13 13 1008.8 - - - - - - - - -
16/07:30am 26.0 W 18 21 1009.2 - - - - - - - - -
16/07:00am 25.8 W 22 25 1009.4 - - - - - - - - -
16/06:33am 26.8 WNW 26 31 1008.9 - - - - - - - - -
16/06:30am 26.9 NW 21 30 1008.9 - - - - - - - - -
16/06:29am 27.0 NW 19 30 1009.0 - - - - - - - - -
16/06:00am 27.4 NW 5 20 1008.3 - - - - - - - - -
16/05:30am 27.4 W 11 12 1008.1 - - - - - - - - -
16/05:00am 28.5 N 9 11 1007.5 - - - - - - - - -
16/04:30am 28.4 NNE 10 11 1007.3 - - - - - - - - -
16/04:00am 28.4 NNE 9 11 1007.0 - - - - - - - - -
16/03:30am 28.3 NNE 9 11 1007.0 - - - - - - - - -
16/03:00am 28.4 NNE 10 11 1006.6 - - - - - - - - -
16/02:30am 28.4 NNE 11 13 1006.8 - - - - - - - - -
16/02:00am 28.6 ENE 11 13 1007.1 - - - - - - - - -
16/01:30am 28.5 NE 8 9 1007.5 - - - - - - - - -
16/01:00am 28.4 NE 9 9 1007.9 - - - - - - - - -
16/12:30am 28.3 NNE 12 13 1008.2 - - - - - - - - -
16/12:00am 27.4 ENE 16 19 1008.4 - - - - - - - - -
 
Date/Time
EST
Temp
°C
Wind Pressure Rain since
9am
mm
Weather Cloud Vis
km
Sea
Height
m
Swell
Dir  Spd
kts
Gust
kts
hPa Trend Height
m
Period
s
Dir
15/11:30pm 28.9 E 10 11 1008.3 - - - - - - - - -
15/11:00pm 28.8 E 11 11 1008.9 - - - - - - - - -
15/10:30pm 28.7 E 13 15 1008.7 - - - - - - - - -
15/10:00pm 28.7 E 11 14 1008.6 - - - - - - - - -
15/09:30pm 28.7 E 12 14 1008.5 - - - - - - - - -
15/09:00pm 28.7 E 13 15 1007.9 - - - - - - - - -
15/08:30pm 28.8 ENE 12 13 1007.9 - - - - - - - - -
15/08:00pm 28.5 E 9 12 1007.5 - - - - - - - - -
15/07:30pm 28.6 ENE 11 13 1007.3 - - - - - - - - -
15/07:00pm 28.7 ENE 11 13 1007.3 - - - - - - - - -
15/06:30pm 28.8 ENE 9 11 1007.3 - - - - - - - - -
15/06:00pm 28.8 ENE 9 11 1007.1 - - - - - - - - -
15/05:30pm 28.8 ENE 8 9 1007.2 - - - - - - - - -
15/05:00pm 28.7 NE 9 12 1006.8 - - - - - - - - -
15/04:30pm 28.8 ENE 9 11 1006.7 - - - - - - - - -
15/04:00pm 28.7 ENE 9 11 1006.7 - - - - - - - - -
15/03:30pm 28.6 ENE 10 11 1006.7 - - - - - - - - -
15/03:00pm 28.7 ENE 8 12 1007.1 - - - - - - - - -
15/02:30pm 28.8 NE 8 9 1007.1 - - - - - - - - -
15/02:00pm 28.6 ENE 8 10 1007.6 - - - - - - - - -
15/01:30pm 28.5 NE 10 11 1007.7 - - - - - - - - -
15/01:00pm 29.1 E 6 13 1008.0 - - - - - - - - -
15/12:30pm 29.0 ESE 5 6 1008.2 - - - - - - - - -
15/12:00pm 29.1 SSE 4 5 1008.7 - - - - - - - - -

Other Formats:

Comma delimited format used in spreadsheet applications
http://www.bom.gov.au/fwo/IDQ60701/IDQ60701.95288.axf

JavaScript Object Notation format (JSON) in row-major order
http://www.bom.gov.au/fwo/IDQ60701/IDQ60701.95288.json